Flight Track Log - Related Links

Times and Time Zones

All times are in EDT time to prevent confusion due to time zone crossing. See the GJS3710 flight status page for this flight to view local times or setup timezone preferences in your user account.

Time Position Orientation Groundspeed Altitude Reporting Facility
EDT Latitude Longitude Course Direction KTS MPH feet Rate Location/Type
Sun 12:30:14 PM 39.9000 -75.1500 68° East 201 231 3,100  Level Philadelphia TRACON
Sun 12:31:14 PM 39.9500 -75.1333 14° North 211 243 5,500 2,105 Climbing Philadelphia TRACON
Sun 12:32:08 PM 39.9500 -75.2167 270° West 267 307 7,100 2,095 Climbing Philadelphia TRACON
Sun 12:33:20 PM 39.9333 -75.3333 259° West 288 331 9,900 1,403 Climbing Philadelphia TRACON
Sun 12:34:12 PM 39.9336 -75.4381 270° West 326 375 10,000 214 Climbing New York Center
Sun 12:35:12 PM 39.9250 -75.5511 264° West 346 398 10,300 1,500 Climbing New York Center
Sun 12:36:12 PM 39.9172 -75.6886 266° West 351 404 13,000 2,350 Climbing New York Center
Sun 12:37:12 PM 39.9144 -75.8022 268° West 351 404 15,000 2,100 Climbing New York Center
Sun 12:38:12 PM 39.9156 -75.9242 271° West 346 398 17,200 1,900 Climbing New York Center
Sun 12:39:12 PM 39.9094 -76.0617 267° West 346 398 18,800 1,450 Climbing New York Center
Sun 12:40:12 PM 39.9097 -76.1889 270° West 351 404 20,100 1,300 Climbing New York Center
Sun 12:41:12 PM 39.9106 -76.3108 271° West 362 417 21,400 1,300 Climbing New York Center
Sun 12:42:12 PM 39.9186 -76.4469 274° West 372 428 22,700 1,150 Climbing New York Center
Sun 12:43:12 PM 39.9244 -76.5800 273° West 372 428 23,700 1,000 Climbing New York Center
Sun 12:44:12 PM 39.9281 -76.7183 272° West 377 434 24,700 1,050 Climbing New York Center
Sun 12:45:12 PM 39.9356 -76.8572 274° West 388 447 25,800 1,150 Climbing New York Center
Sun 12:46:12 PM 39.9386 -76.9983 272° West 388 447 27,000 1,050 Climbing New York Center
Sun 12:47:12 PM 39.9458 -77.1397 274° West 388 447 27,900 850 Climbing New York Center
Sun 12:48:12 PM 39.9506 -77.2811 273° West 388 447 28,700 857 Climbing New York Center
Sun 12:49:53 PM 39.9619 -77.5386 273° West 387 445 30,200 857 Climbing Cleveland Center
Sun 12:50:53 PM 39.9658 -77.6872 272° West 394 453 31,000 850 Climbing Cleveland Center
Sun 12:51:53 PM 39.9714 -77.8333 273° West 399 459 31,900 950 Climbing Cleveland Center
Sun 12:52:53 PM 39.9747 -77.9742 272° West 399 459 32,900 1,000 Climbing Cleveland Center
Sun 12:53:53 PM 39.9781 -78.1178 272° West 399 459 33,900 1,000 Climbing Cleveland Center
Sun 12:54:53 PM 39.9831 -78.2556 273° West 399 459 34,900 900 Climbing Cleveland Center
Sun 12:55:53 PM 39.9811 -78.3803 269° West 394 453 35,700 900 Climbing Cleveland Center
Sun 12:56:53 PM 39.9836 -78.5131 271° West 382 440 36,700 1,050 Climbing Cleveland Center
Sun 12:57:53 PM 39.9861 -78.6403 272° West 371 427 37,800 650 Climbing Cleveland Center
Sun 12:58:53 PM 39.9881 -78.7703 271° West 364 419 38,000 100 Climbing Cleveland Center
Sun 12:59:53 PM 39.9922 -78.9031 272° West 369 425 38,000  Level Cleveland Center
Sun 01:00:53 PM 39.9983 -79.0331 274° West 364 419 38,000  Level Cleveland Center
Sun 01:01:53 PM 40.0000 -79.1631 271° West 364 419 38,000  Level Cleveland Center
Sun 01:02:53 PM 40.0036 -79.2931 272° West 364 419 38,000  Level Cleveland Center
Sun 01:03:53 PM 40.0050 -79.4203 271° West 364 419 38,000  Level Cleveland Center
Sun 01:04:53 PM 40.0061 -79.5478 271° West 364 419 38,000  Level Cleveland Center
Sun 01:05:53 PM 40.0094 -79.6858 272° West 359 413 38,000  Level Cleveland Center
Sun 01:06:53 PM 40.0103 -79.8106 271° West 354 407 38,000  Level Cleveland Center
Sun 01:07:53 PM 40.0111 -79.9381 271° West 354 407 38,000  Level Cleveland Center
Sun 01:08:53 PM 40.0139 -80.0653 272° West 354 407 38,000  Level Cleveland Center
Sun 01:09:53 PM 40.0144 -80.1956 270° West 354 407 38,000  Level Cleveland Center
Sun 01:10:53 PM 40.0169 -80.3256 271° West 354 407 38,000  Level Cleveland Center
Sun 01:11:53 PM 40.0169 -80.4558 270° West 360 414 38,000  Level Cleveland Center
Sun 01:12:53 PM 40.0172 -80.5911 270° West 365 420 38,000  Level Cleveland Center
Sun 01:13:53 PM 40.0192 -80.7242 271° West 365 420 38,000  Level Cleveland Center
Sun 01:15:54 PM 40.0139 -80.9894 269° West 371 427 38,000  Level Indianapolis Center
Sun 01:16:55 PM 40.0131 -81.1256 270° West 372 428 38,000  Level Indianapolis Center
Sun 01:17:57 PM 40.0092 -81.2622 268° West 373 429 38,000  Level Indianapolis Center
Sun 01:18:59 PM 40.0075 -81.3983 269° West 372 428 38,000  Level Indianapolis Center
Sun 01:20:01 PM 40.0047 -81.5333 269° West 371 427 38,000  Level Indianapolis Center
Sun 01:21:02 PM 40.0022 -81.6625 269° West 357 411 38,000  Level Indianapolis Center
Sun 01:22:04 PM 40.0000 -81.8056 269° West 356 410 38,000  Level Indianapolis Center
Sun 01:23:06 PM 39.9969 -81.9367 268° West 360 414 38,000  Level Indianapolis Center
Sun 01:24:08 PM 39.9928 -82.0700 268° West 367 422 38,000  Level Indianapolis Center
Sun 01:25:09 PM 39.9900 -82.2033 268° West 365 420 38,000  Level Indianapolis Center
Sun 01:26:11 PM 39.9872 -82.3358 268° West 364 419 38,000  Level Indianapolis Center
Sun 01:27:13 PM 39.9828 -82.4644 267° West 354 407 38,000  Level Indianapolis Center
Sun 01:28:14 PM 39.9783 -82.5908 267° West 349 402 38,000  Level Indianapolis Center
Sun 01:29:16 PM 39.9731 -82.7383 267° West 348 400 38,000  Level Indianapolis Center
Sun 01:30:18 PM 39.9675 -82.8664 267° West 351 404 38,000  Level Indianapolis Center
Sun 01:31:19 PM 39.9608 -82.9939 266° West 352 405 38,000  Level Indianapolis Center
Sun 01:32:21 PM 39.9550 -83.1239 267° West 358 412 38,000  Level Indianapolis Center
Sun 01:33:23 PM 39.9483 -83.2533 266° West 359 413 38,000  Level Indianapolis Center
Sun 01:34:24 PM 39.9619 -83.3861 278° West 383 441 38,000  Level Indianapolis Center
Sun 01:35:26 PM 40.0231 -83.5128 302° West 419 482 38,000  Level Indianapolis Center
Sun 01:36:28 PM 40.1058 -83.6569 307° West 426 490 38,000  Level Indianapolis Center
Sun 01:37:29 PM 40.1781 -83.7808 307° West 428 493 38,000 -49 Level Indianapolis Center
Sun 01:38:31 PM 40.2508 -83.9056 307° West 429 494 37,900 -484 Descending Indianapolis Center
Sun 01:39:33 PM 40.3239 -84.0319 307° West 433 498 37,000 -927 Descending Indianapolis Center
Sun 01:40:34 PM 40.3972 -84.1583 307° West 433 498 36,000 -780 Descending Indianapolis Center
Sun 01:41:36 PM 40.4714 -84.2886 307° West 442 509 35,400 -823 Descending Indianapolis Center
Sun 01:42:38 PM 40.5467 -84.4217 307° West 449 517 34,300 -683 Descending Indianapolis Center
Sun 01:43:39 PM 40.6364 -84.5794 307° West 458 527 34,000 -188 Descending Indianapolis Center
Sun 01:44:14 PM 40.6778 -84.6517 307° West 457 526 34,000  Level Chicago Center
Sun 01:45:16 PM 40.7489 -84.7892 304° West 456 525 34,000  Level Chicago Center
Sun 01:46:19 PM 40.7869 -84.9461 288° West 452 520 34,000 -864 Level Chicago Center
Sun 01:47:21 PM 40.8269 -85.1050 288° West 451 519 32,200 -1,742 Descending Chicago Center
Sun 01:48:23 PM 40.8672 -85.2667 288° West 459 528 30,400 -1,790 Descending Chicago Center
Sun 01:49:25 PM 40.9083 -85.4289 289° West 463 533 28,500 -2,129 Descending Chicago Center
Sun 01:50:27 PM 40.9550 -85.6206 288° West 456 525 26,000 -2,129 Descending Chicago Center
Sun 01:51:29 PM 40.9933 -85.7789 288° West 451 519 24,100 -1,210 Descending Chicago Center
Sun 01:52:31 PM 41.0256 -85.9347 285° West 443 510 23,500 -774 Descending Chicago Center
Sun 01:53:33 PM 41.0483 -86.0869 281° West 427 491 22,500 -968 Descending Chicago Center
Sun 01:54:35 PM 41.0708 -86.2403 281° West 424 488 21,500 -1,306 Descending Chicago Center
Sun 01:55:37 PM 41.1158 -86.3875 292° West 429 494 19,800 -1,694 Descending Chicago Center
Sun 01:56:39 PM 41.1578 -86.5300 291° West 421 484 18,000 -1,790 Descending Chicago Center
Sun 01:57:41 PM 41.2089 -86.6939 293° West 406 467 16,100 -1,776 Descending Chicago Center
Sun 01:58:44 PM 41.2511 -86.8286 293° West 381 438 14,300 -1,728 Descending Chicago Center
Sun 01:59:46 PM 41.2903 -86.9539 293° West 371 427 12,500 -1,597 Descending Chicago Center
Sun 02:00:48 PM 41.3275 -87.0781 292° West 367 422 11,000 -726 Descending Chicago Center
Sun 02:01:50 PM 41.3686 -87.1947 295° West 355 409 11,000  Level Chicago Center
Sun 02:02:52 PM 41.4408 -87.2847 317° Northwest 362 417 11,000  Level Chicago Center
Sun 02:03:54 PM 41.5311 -87.3908 319° Northwest 362 417 11,000  Level Chicago Center
Sun 02:04:56 PM 41.6100 -87.4756 321° Northwest 367 422 11,000 -435 Level Chicago Center
Sun 02:05:58 PM 41.6831 -87.5581 320° Northwest 351 404 10,100 -968 Descending Chicago Center
Sun 02:07:00 PM 41.7425 -87.6258 320° Northwest 288 331 9,000 -1,065 Descending Chicago Center
Sun 02:08:02 PM 41.8072 -87.6981 320° Northwest 256 295 7,900 -968 Descending Chicago Center
Sun 02:09:04 PM 41.8189 -87.7819 281° West 235 270 7,000 -435 Descending Chicago Center
Sun 02:10:06 PM 41.8175 -87.8569 269° West 209 241 7,000  Level Chicago Center
Sun 02:11:09 PM 41.8172 -87.9336 270° West 208 239 7,000  Level Chicago Center
Sun 02:12:11 PM 41.7847 -87.9894 232° Southwest 205 236 7,000  Level Chicago Center
Sun 02:13:13 PM 41.7322 -88.0467 219° Southwest 203 234 7,000 -194 Level Chicago Center
Sun 02:14:15 PM 41.7161 -88.1083 251° West 219 252 6,600 -629 Descending Chicago Center
Sun 02:15:17 PM 41.7658 -88.1181 352° North 221 254 5,700 -1,113 Descending Chicago Center
Sun 02:16:19 PM 41.8092 -88.0719 38° Northeast 205 236 4,300 -1,161 Descending Chicago Center
Sun 02:17:21 PM 41.8492 -88.0231 42° Northeast 199 229 3,300 -1,065 Descending Chicago Center
Sun 02:18:23 PM 41.8975 -87.9656 42° Northeast 196 226 2,100 -968 Descending Chicago Center
Sun 02:19:25 PM 41.9306 -87.9269 41° Northeast 175 201 1,300 -435 Descending Chicago Center
Sun 02:20:27 PM 41.9589 -87.8969 38° Northeast 168 193 1,200 -97 Descending Chicago Center

Login

Don't have an account? Register now (free) for customized features, flight alerts, and more!